Emden — 3ERP5 — position and weather

sailwx.info

Track history (hours):
 
Tides and Currents Weather Stations Pressure Air Temp Water Temp Dewpoint Dewpoint Depression Visibility Wind Speed Wind Dir Waves Ship Positions

Emden

Last reported at 2014-Oct-21 14:33 UTC. Time now 2014-Oct-21 15:18 UTC.
Position N 51°27' E 001°28'.

Length 177 m; draft 7.7 m.

Type: Ship. MMSI: 355051000.

Date/timePositionNaut miles runAvg speedWind from/ knotsBaromVisibWave heightAir tempDewpointWater temp
2014-Oct-21 14:33N 51°27' E 001°28'1515.3
2014-Oct-21 13:33N 51°30' E 001°03'1312.6
2014-Oct-21 12:34N 51°26' E 000°44'0 0.2
2014-Oct-21 11:33N 51°26' E 000°44'0 0.0
2014-Oct-21 10:33N 51°26' E 000°44'0 0.0
2014-Oct-21 09:33N 51°26' E 000°44'0 0.0
2014-Oct-21 08:33N 51°26' E 000°44'0 0.0
2014-Oct-21 07:33N 51°26' E 000°44'0 0.0
2014-Oct-21 06:33N 51°26' E 000°44'0 0.0
2014-Oct-21 05:33N 51°26' E 000°44'0 0.0
2014-Oct-21 04:33N 51°26' E 000°44'0 0.0
2014-Oct-21 03:33N 51°26' E 000°44'0 0.0
2014-Oct-21 02:33N 51°26' E 000°44'0 0.0
2014-Oct-21 01:33N 51°26' E 000°44'0 0.0
2014-Oct-21 00:33N 51°26' E 000°44'0 0.0
2014-Oct-20 23:32N 51°26' E 000°44'0 0.0
2014-Oct-20 22:32N 51°26' E 000°44'0 0.0
2014-Oct-20 21:32N 51°26' E 000°44'0 0.0
2014-Oct-20 20:32N 51°26' E 000°44'0 0.0
2014-Oct-20 19:32N 51°26' E 000°44'0 0.1
2014-Oct-20 18:34N 51°26' E 000°44'8 7.9
2014-Oct-20 17:34N 51°29' E 000°56'5 4.8
2014-Oct-20 16:33N 51°30' E 001°04'7 7.0
2014-Oct-20 15:34N 51°29' E 001°15'6 6.2
2014-Oct-20 14:33N 51°29' E 001°25'4 4.2
2014-Oct-20 13:33N 51°30' E 001°31'0 0.0
2014-Oct-20 12:33N 51°30' E 001°31'0 0.0
2014-Oct-20 11:33N 51°30' E 001°31'1 0.6
2014-Oct-20 10:33N 51°30' E 001°31'1 1.4
2014-Oct-20 09:33N 51°29' E 001°29'1010.0
2014-Oct-20 08:34N 51°32' E 001°45'1515.1
2014-Oct-20 07:33N 51°39' E 002°06'12913.8
2014-Oct-19 22:12N 53°15' E 004°28'913.7
2014-Oct-19 21:34N 53°23' E 004°34'1313.3
2014-Oct-19 20:33N 53°32' E 004°51'1413.9
2014-Oct-19 19:32N 53°36' E 005°13'1313.6
2014-Oct-19 18:33N 53°41' E 005°35'1312.8
2014-Oct-19 17:33N 53°44' E 005°56'1211.9
2014-Oct-19 16:33N 53°40' E 006°14'11 9.6
2014-Oct-19 15:24N 53°37' E 006°32'1011.5
2014-Oct-19 14:33N 53°31' E 006°46'1212.2
2014-Oct-19 13:33N 53°22' E 006°59'7 6.6
2014-Oct-19 12:31N 53°20' E 007°10'0 0.0
2014-Oct-19 11:31N 53°20' E 007°10'0 0.0
2014-Oct-19 10:28N 53°20' E 007°10'0 0.0
2014-Oct-19 09:31N 53°20' E 007°10'0 0.0
2014-Oct-19 08:31N 53°20' E 007°10'0 0.0
2014-Oct-19 07:31N 53°20' E 007°10'0 0.0
2014-Oct-19 06:31N 53°20' E 007°10'0 0.0
2014-Oct-19 05:31N 53°20' E 007°10'0 0.0
2014-Oct-19 04:31N 53°20' E 007°10'0 0.0
2014-Oct-19 03:31N 53°20' E 007°10'0 0.0
2014-Oct-19 02:31N 53°20' E 007°10'0 0.0
2014-Oct-19 01:31N 53°20' E 007°10'0 0.0
2014-Oct-19 00:31N 53°20' E 007°10'0 0.0
2014-Oct-18 23:31N 53°20' E 007°10'0 0.0
2014-Oct-18 22:31N 53°20' E 007°10'0 0.0
2014-Oct-18 21:28N 53°20' E 007°10'0 0.0
2014-Oct-18 20:31N 53°20' E 007°10'0 0.0
2014-Oct-18 19:31N 53°20' E 007°10'0 0.0
2014-Oct-18 18:31N 53°20' E 007°10'0 0.0
2014-Oct-18 17:31N 53°20' E 007°10'0 0.0
2014-Oct-18 16:31N 53°20' E 007°10'0 0.0
2014-Oct-18 15:31N 53°20' E 007°10'0 0.0
2014-Oct-18 14:31N 53°20' E 007°10'0 0.0
2014-Oct-18 13:31N 53°20' E 007°10'0 0.0
2014-Oct-18 12:31N 53°20' E 007°10'0 0.0
2014-Oct-18 11:31N 53°20' E 007°10'0 0.0
2014-Oct-18 10:31N 53°20' E 007°10'0 0.0
2014-Oct-18 09:28N 53°20' E 007°10'0 0.0
2014-Oct-18 08:31N 53°20' E 007°10'0 0.0
2014-Oct-18 07:30N 53°20' E 007°10'0 0.0
2014-Oct-18 06:33N 53°20' E 007°10'0 0.0
2014-Oct-18 05:33N 53°20' E 007°10'0 0.0
2014-Oct-18 04:33N 53°20' E 007°10'1 1.1
2014-Oct-18 03:33N 53°20' E 007°08'9 8.7
2014-Oct-18 02:34N 53°25' E 006°56'1515.2
2014-Oct-18 01:34N 53°35' E 006°37'1110.9
2014-Oct-18 00:33N 53°38' E 006°19'3 2.9
2014-Oct-17 23:33N 53°40' E 006°16'0 0.4
2014-Oct-17 22:33N 53°40' E 006°15'0 0.3
2014-Oct-17 21:33N 53°39' E 006°15'0 0.2
2014-Oct-17 20:32N 53°39' E 006°16'6 6.2
2014-Oct-17 19:34N 53°41' E 006°06'1413.5
2014-Oct-17 18:33N 53°37' E 005°44'1413.6
2014-Oct-17 17:34N 53°33' E 005°22'1413.9
2014-Oct-17 16:33N 53°28' E 005°00'1413.5
2014-Oct-17 15:33N 53°21' E 004°40'1414.2
2014-Oct-17 14:33N 53°09' E 004°29'1414.3
2014-Oct-17 13:33N 52°56' E 004°18'1414.3
2014-Oct-17 12:33N 52°44' E 004°05'1514.6
2014-Oct-17 11:33N 52°33' E 003°50'1514.7
2014-Oct-17 10:33N 52°23' E 003°32'5215.2
2014-Oct-17 07:06N 51°44' E 002°34'915.1
2014-Oct-17 06:31N 51°37' E 002°25'1414.7
2014-Oct-17 05:33N 51°26' E 002°12'1414.1
2014-Oct-17 04:33N 51°13' E 002°02'1414.4
2014-Oct-17 03:33N 51°05' E 001°43'1414.1
2014-Oct-17 02:34N 50°54' E 001°28'1413.8
2014-Oct-17 01:33N 50°42' E 001°20'1414.0
2014-Oct-17 00:33N 50°32' E 001°03'1413.6
2014-Oct-16 23:33N 50°26' E 000°44'1414.1
2014-Oct-16 22:33N 50°23' E 000°23'13314.1
2014-Oct-16 13:07N 49°47' W 002°56'914.9
2014-Oct-16 12:31N 49°43' W 003°08'  
2014-Oct-14 03:33N 38°24' W 009°26'1312.6
2014-Oct-14 02:33N 38°21' W 009°10'1211.7
2014-Oct-14 01:33N 38°27' W 008°58'6 5.8
2014-Oct-14 00:32N 38°31' W 008°52'0 0.0
2014-Oct-13 23:32N 38°31' W 008°52'0 0.0
2014-Oct-13 22:29N 38°31' W 008°52'0 0.0
2014-Oct-13 21:32N 38°31' W 008°52'0 0.0
2014-Oct-13 20:29N 38°31' W 008°52'0 0.0
2014-Oct-13 19:29N 38°31' W 008°52'0 0.0
2014-Oct-13 18:32N 38°31' W 008°52'0 0.0
2014-Oct-13 17:32N 38°31' W 008°52'0 0.0
2014-Oct-13 16:23N 38°31' W 008°52'0 0.0
2014-Oct-13 15:32N 38°31' W 008°52'0 0.0
2014-Oct-13 14:29N 38°31' W 008°52'0 0.0
2014-Oct-13 13:32N 38°31' W 008°52'2 1.9
2014-Oct-13 12:33N 38°31' W 008°54'9 9.0
2014-Oct-13 11:33N 38°24' W 009°02'1413.5
2014-Oct-13 10:33N 38°20' W 009°18'  
Track history (hours):
 
Tides and Currents Weather Stations Pressure Air Temp Water Temp Dewpoint Dewpoint Depression Visibility Wind Speed Wind Dir Waves Ship Positions

Emden

Last reported at 2014-Oct-21 14:33 UTC. Time now 2014-Oct-21 15:18 UTC.
Position N 51°27' E 001°28'.

Length 177 m; draft 7.7 m.

Type: Ship. MMSI: 355051000.

Date/timePositionNaut miles runAvg speedWind from/ knotsBaromVisibWave heightAir tempDewpointWater temp
2014-Oct-21 14:33N 51°27' E 001°28'1515.3
2014-Oct-21 13:33N 51°30' E 001°03'1312.6
2014-Oct-21 12:34N 51°26' E 000°44'0 0.2
2014-Oct-21 11:33N 51°26' E 000°44'0 0.0
2014-Oct-21 10:33N 51°26' E 000°44'0 0.0
2014-Oct-21 09:33N 51°26' E 000°44'0 0.0
2014-Oct-21 08:33N 51°26' E 000°44'0 0.0
2014-Oct-21 07:33N 51°26' E 000°44'0 0.0
2014-Oct-21 06:33N 51°26' E 000°44'0 0.0
2014-Oct-21 05:33N 51°26' E 000°44'0 0.0
2014-Oct-21 04:33N 51°26' E 000°44'0 0.0
2014-Oct-21 03:33N 51°26' E 000°44'0 0.0
2014-Oct-21 02:33N 51°26' E 000°44'0 0.0
2014-Oct-21 01:33N 51°26' E 000°44'0 0.0
2014-Oct-21 00:33N 51°26' E 000°44'0 0.0
2014-Oct-20 23:32N 51°26' E 000°44'0 0.0
2014-Oct-20 22:32N 51°26' E 000°44'0 0.0
2014-Oct-20 21:32N 51°26' E 000°44'0 0.0
2014-Oct-20 20:32N 51°26' E 000°44'0 0.0
2014-Oct-20 19:32N 51°26' E 000°44'0 0.1
2014-Oct-20 18:34N 51°26' E 000°44'8 7.9
2014-Oct-20 17:34N 51°29' E 000°56'5 4.8
2014-Oct-20 16:33N 51°30' E 001°04'7 7.0
2014-Oct-20 15:34N 51°29' E 001°15'6 6.2
2014-Oct-20 14:33N 51°29' E 001°25'4 4.2
2014-Oct-20 13:33N 51°30' E 001°31'0 0.0
2014-Oct-20 12:33N 51°30' E 001°31'0 0.0
2014-Oct-20 11:33N 51°30' E 001°31'1 0.6
2014-Oct-20 10:33N 51°30' E 001°31'1 1.4
2014-Oct-20 09:33N 51°29' E 001°29'1010.0
2014-Oct-20 08:34N 51°32' E 001°45'1515.1
2014-Oct-20 07:33N 51°39' E 002°06'12913.8
2014-Oct-19 22:12N 53°15' E 004°28'913.7
2014-Oct-19 21:34N 53°23' E 004°34'1313.3
2014-Oct-19 20:33N 53°32' E 004°51'1413.9
2014-Oct-19 19:32N 53°36' E 005°13'1313.6
2014-Oct-19 18:33N 53°41' E 005°35'1312.8
2014-Oct-19 17:33N 53°44' E 005°56'1211.9
2014-Oct-19 16:33N 53°40' E 006°14'11 9.6
2014-Oct-19 15:24N 53°37' E 006°32'1011.5
2014-Oct-19 14:33N 53°31' E 006°46'1212.2
2014-Oct-19 13:33N 53°22' E 006°59'7 6.6
2014-Oct-19 12:31N 53°20' E 007°10'0 0.0
2014-Oct-19 11:31N 53°20' E 007°10'0 0.0
2014-Oct-19 10:28N 53°20' E 007°10'0 0.0
2014-Oct-19 09:31N 53°20' E 007°10'0 0.0
2014-Oct-19 08:31N 53°20' E 007°10'0 0.0
2014-Oct-19 07:31N 53°20' E 007°10'0 0.0
2014-Oct-19 06:31N 53°20' E 007°10'0 0.0
2014-Oct-19 05:31N 53°20' E 007°10'0 0.0
2014-Oct-19 04:31N 53°20' E 007°10'0 0.0
2014-Oct-19 03:31N 53°20' E 007°10'0 0.0
2014-Oct-19 02:31N 53°20' E 007°10'0 0.0
2014-Oct-19 01:31N 53°20' E 007°10'0 0.0
2014-Oct-19 00:31N 53°20' E 007°10'0 0.0
2014-Oct-18 23:31N 53°20' E 007°10'0 0.0
2014-Oct-18 22:31N 53°20' E 007°10'0 0.0
2014-Oct-18 21:28N 53°20' E 007°10'0 0.0
2014-Oct-18 20:31N 53°20' E 007°10'0 0.0
2014-Oct-18 19:31N 53°20' E 007°10'0 0.0
2014-Oct-18 18:31N 53°20' E 007°10'0 0.0
2014-Oct-18 17:31N 53°20' E 007°10'0 0.0
2014-Oct-18 16:31N 53°20' E 007°10'0 0.0
2014-Oct-18 15:31N 53°20' E 007°10'0 0.0
2014-Oct-18 14:31N 53°20' E 007°10'0 0.0
2014-Oct-18 13:31N 53°20' E 007°10'0 0.0
2014-Oct-18 12:31N 53°20' E 007°10'0 0.0
2014-Oct-18 11:31N 53°20' E 007°10'0 0.0
2014-Oct-18 10:31N 53°20' E 007°10'0 0.0
2014-Oct-18 09:28N 53°20' E 007°10'0 0.0
2014-Oct-18 08:31N 53°20' E 007°10'0 0.0
2014-Oct-18 07:30N 53°20' E 007°10'0 0.0
2014-Oct-18 06:33N 53°20' E 007°10'0 0.0
2014-Oct-18 05:33N 53°20' E 007°10'0 0.0
2014-Oct-18 04:33N 53°20' E 007°10'1 1.1
2014-Oct-18 03:33N 53°20' E 007°08'9 8.7
2014-Oct-18 02:34N 53°25' E 006°56'1515.2
2014-Oct-18 01:34N 53°35' E 006°37'1110.9
2014-Oct-18 00:33N 53°38' E 006°19'3 2.9
2014-Oct-17 23:33N 53°40' E 006°16'0 0.4
2014-Oct-17 22:33N 53°40' E 006°15'0 0.3
2014-Oct-17 21:33N 53°39' E 006°15'0 0.2
2014-Oct-17 20:32N 53°39' E 006°16'6 6.2
2014-Oct-17 19:34N 53°41' E 006°06'1413.5
2014-Oct-17 18:33N 53°37' E 005°44'1413.6
2014-Oct-17 17:34N 53°33' E 005°22'1413.9
2014-Oct-17 16:33N 53°28' E 005°00'1413.5
2014-Oct-17 15:33N 53°21' E 004°40'1414.2
2014-Oct-17 14:33N 53°09' E 004°29'1414.3
2014-Oct-17 13:33N 52°56' E 004°18'1414.3
2014-Oct-17 12:33N 52°44' E 004°05'1514.6
2014-Oct-17 11:33N 52°33' E 003°50'1514.7
2014-Oct-17 10:33N 52°23' E 003°32'5215.2
2014-Oct-17 07:06N 51°44' E 002°34'915.1
2014-Oct-17 06:31N 51°37' E 002°25'1414.7
2014-Oct-17 05:33N 51°26' E 002°12'1414.1
2014-Oct-17 04:33N 51°13' E 002°02'1414.4
2014-Oct-17 03:33N 51°05' E 001°43'1414.1
2014-Oct-17 02:34N 50°54' E 001°28'1413.8
2014-Oct-17 01:33N 50°42' E 001°20'1414.0
2014-Oct-17 00:33N 50°32' E 001°03'1413.6
2014-Oct-16 23:33N 50°26' E 000°44'1414.1
2014-Oct-16 22:33N 50°23' E 000°23'13314.1
2014-Oct-16 13:07N 49°47' W 002°56'914.9
2014-Oct-16 12:31N 49°43' W 003°08'  
2014-Oct-14 03:33N 38°24' W 009°26'1312.6
2014-Oct-14 02:33N 38°21' W 009°10'1211.7
2014-Oct-14 01:33N 38°27' W 008°58'6 5.8
2014-Oct-14 00:32N 38°31' W 008°52'0 0.0
2014-Oct-13 23:32N 38°31' W 008°52'0 0.0
2014-Oct-13 22:29N 38°31' W 008°52'0 0.0
2014-Oct-13 21:32N 38°31' W 008°52'0 0.0
2014-Oct-13 20:29N 38°31' W 008°52'0 0.0
2014-Oct-13 19:29N 38°31' W 008°52'0 0.0
2014-Oct-13 18:32N 38°31' W 008°52'0 0.0
2014-Oct-13 17:32N 38°31' W 008°52'0 0.0
2014-Oct-13 16:23N 38°31' W 008°52'0 0.0
2014-Oct-13 15:32N 38°31' W 008°52'0 0.0
2014-Oct-13 14:29N 38°31' W 008°52'0 0.0
2014-Oct-13 13:32N 38°31' W 008°52'2 1.9
2014-Oct-13 12:33N 38°31' W 008°54'9 9.0
2014-Oct-13 11:33N 38°24' W 009°02'1413.5
2014-Oct-13 10:33N 38°20' W 009°18'  

Dump ship's entire track history